sensor_id;sensor_type;location;lat;lon;timestamp;pressure;altitude;pressure_sealevel;temperature;humidity
34103;BME280;20381;54.498;18.206;2022-08-21T00:00:11;99285.27;;;18.75;100.00
34103;BME280;20381;54.498;18.206;2022-08-21T00:02:50;99277.34;;;18.75;100.00
34103;BME280;20381;54.498;18.206;2022-08-21T00:05:22;99263.50;;;18.77;100.00
34103;BME280;20381;54.498;18.206;2022-08-21T00:07:50;99264.12;;;18.75;100.00
34103;BME280;20381;54.498;18.206;2022-08-21T00:10:18;99273.59;;;18.77;100.00
34103;BME280;20381;54.498;18.206;2022-08-21T00:12:45;99264.55;;;18.80;100.00
34103;BME280;20381;54.498;18.206;2022-08-21T00:15:16;99266.09;;;18.83;100.00
34103;BME280;20381;54.498;18.206;2022-08-21T00:17:44;99264.19;;;18.79;100.00
34103;BME280;20381;54.498;18.206;2022-08-21T00:20:14;99252.38;;;18.83;100.00
34103;BME280;20381;54.498;18.206;2022-08-21T00:22:41;99251.27;;;18.86;100.00
34103;BME280;20381;54.498;18.206;2022-08-21T00:25:09;99243.45;;;18.84;100.00
34103;BME280;20381;54.498;18.206;2022-08-21T00:27:38;99240.20;;;18.86;100.00
34103;BME280;20381;54.498;18.206;2022-08-21T00:30:06;99239.58;;;18.88;100.00
34103;BME280;20381;54.498;18.206;2022-08-21T00:32:33;99243.98;;;18.93;100.00
34103;BME280;20381;54.498;18.206;2022-08-21T00:35:04;99250.22;;;18.92;100.00
34103;BME280;20381;54.498;18.206;2022-08-21T00:37:33;99253.42;;;18.96;100.00
34103;BME280;20381;54.498;18.206;2022-08-21T00:40:00;99251.64;;;18.96;100.00
34103;BME280;20381;54.498;18.206;2022-08-21T00:42:28;99256.34;;;18.93;100.00
34103;BME280;20381;54.498;18.206;2022-08-21T00:44:56;99263.88;;;18.97;100.00
34103;BME280;20381;54.498;18.206;2022-08-21T00:47:23;99270.92;;;19.03;100.00
34103;BME280;20381;54.498;18.206;2022-08-21T00:49:49;99270.98;;;19.07;100.00
34103;BME280;20381;54.498;18.206;2022-08-21T00:52:19;99260.68;;;19.04;100.00
34103;BME280;20381;54.498;18.206;2022-08-21T00:54:49;99268.98;;;19.05;100.00
34103;BME280;20381;54.498;18.206;2022-08-21T00:57:23;99264.59;;;19.09;100.00
34103;BME280;20381;54.498;18.206;2022-08-21T00:59:55;99266.40;;;19.09;100.00
34103;BME280;20381;54.498;18.206;2022-08-21T01:02:24;99266.06;;;19.08;100.00
34103;BME280;20381;54.498;18.206;2022-08-21T01:04:51;99265.97;;;19.04;100.00
34103;BME280;20381;54.498;18.206;2022-08-21T01:07:18;99271.97;;;19.06;100.00
34103;BME280;20381;54.498;18.206;2022-08-21T01:09:46;99263.70;;;19.05;100.00
34103;BME280;20381;54.498;18.206;2022-08-21T01:12:13;99259.97;;;19.01;100.00
34103;BME280;20381;54.498;18.206;2022-08-21T01:14:41;99256.00;;;19.01;100.00
34103;BME280;20381;54.498;18.206;2022-08-21T01:17:10;99256.38;;;19.03;100.00
34103;BME280;20381;54.498;18.206;2022-08-21T01:19:38;99257.48;;;19.00;100.00
34103;BME280;20381;54.498;18.206;2022-08-21T01:22:05;99250.99;;;18.98;100.00
34103;BME280;20381;54.498;18.206;2022-08-21T01:24:33;99253.30;;;18.97;100.00
34103;BME280;20381;54.498;18.206;2022-08-21T01:27:00;99250.66;;;18.97;100.00
34103;BME280;20381;54.498;18.206;2022-08-21T01:29:54;99250.66;;;18.97;100.00
34103;BME280;20381;54.498;18.206;2022-08-21T01:32:11;99254.01;;;18.99;100.00
34103;BME280;20381;54.498;18.206;2022-08-21T01:34:42;99256.50;;;19.01;100.00
34103;BME280;20381;54.498;18.206;2022-08-21T01:37:11;99249.39;;;19.01;100.00
34103;BME280;20381;54.498;18.206;2022-08-21T01:39:39;99256.38;;;19.03;100.00
34103;BME280;20381;54.498;18.206;2022-08-21T01:42:06;99255.05;;;19.03;100.00
34103;BME280;20381;54.498;18.206;2022-08-21T01:44:33;99251.36;;;18.99;100.00
34103;BME280;20381;54.498;18.206;2022-08-21T01:47:03;99251.64;;;18.96;100.00
34103;BME280;20381;54.498;18.206;2022-08-21T01:49:31;99244.10;;;18.92;100.00
34103;BME280;20381;54.498;18.206;2022-08-21T01:51:58;99248.56;;;18.91;100.00
34103;BME280;20381;54.498;18.206;2022-08-21T01:54:25;99250.84;;;18.90;100.00
34103;BME280;20381;54.498;18.206;2022-08-21T01:56:53;99249.45;;;18.86;100.00
34103;BME280;20381;54.498;18.206;2022-08-21T01:59:22;99250.50;;;18.89;100.00
34103;BME280;20381;54.498;18.206;2022-08-21T02:01:49;99254.56;;;18.93;100.00
34103;BME280;20381;54.498;18.206;2022-08-21T02:04:16;99254.19;;;18.92;100.00
34103;BME280;20381;54.498;18.206;2022-08-21T02:06:43;99255.23;;;18.95;100.00
34103;BME280;20381;54.498;18.206;2022-08-21T02:09:11;99253.58;;;18.94;100.00
34103;BME280;20381;54.498;18.206;2022-08-21T02:11:38;99252.88;;;18.92;100.00
34103;BME280;20381;54.498;18.206;2022-08-21T02:14:13;99250.66;;;18.97;100.00
34103;BME280;20381;54.498;18.206;2022-08-21T02:16:38;99247.45;;;19.04;100.00
34103;BME280;20381;54.498;18.206;2022-08-21T02:19:06;99250.71;;;19.01;100.00
34103;BME280;20381;54.498;18.206;2022-08-21T02:21:32;99246.06;;;18.99;100.00
34103;BME280;20381;54.498;18.206;2022-08-21T02:23:59;99243.70;;;18.96;100.00
34103;BME280;20381;54.498;18.206;2022-08-21T02:26:26;99239.02;;;18.94;100.00
34103;BME280;20381;54.498;18.206;2022-08-21T02:28:53;99235.77;;;18.96;100.00
34103;BME280;20381;54.498;18.206;2022-08-21T02:31:19;99240.34;;;18.94;100.00
34103;BME280;20381;54.498;18.206;2022-08-21T02:33:47;99241.19;;;18.85;100.00
34103;BME280;20381;54.498;18.206;2022-08-21T02:36:13;99231.16;;;18.89;100.00
34103;BME280;20381;54.498;18.206;2022-08-21T02:38:41;99233.09;;;18.77;100.00
34103;BME280;20381;54.498;18.206;2022-08-21T02:41:13;99227.95;;;18.85;100.00
34103;BME280;20381;54.498;18.206;2022-08-21T02:43:40;99221.80;;;18.85;100.00
34103;BME280;20381;54.498;18.206;2022-08-21T02:46:09;99227.16;;;18.79;100.00
34103;BME280;20381;54.498;18.206;2022-08-21T02:48:36;99218.05;;;18.87;100.00
34103;BME280;20381;54.498;18.206;2022-08-21T02:51:13;99215.55;;;18.95;100.00
34103;BME280;20381;54.498;18.206;2022-08-21T02:53:38;99218.20;;;18.95;100.00
34103;BME280;20381;54.498;18.206;2022-08-21T02:56:08;99212.08;;;18.95;100.00
34103;BME280;20381;54.498;18.206;2022-08-21T02:58:39;99217.00;;;18.84;100.00
34103;BME280;20381;54.498;18.206;2022-08-21T03:01:08;99214.09;;;18.77;100.00
34103;BME280;20381;54.498;18.206;2022-08-21T03:03:36;99213.20;;;18.83;100.00
34103;BME280;20381;54.498;18.206;2022-08-21T03:06:05;99216.27;;;18.88;100.00
34103;BME280;20381;54.498;18.206;2022-08-21T03:08:34;99218.20;;;18.95;100.00
34103;BME280;20381;54.498;18.206;2022-08-21T03:11:01;99220.42;;;18.90;100.00
34103;BME280;20381;54.498;18.206;2022-08-21T03:13:28;99222.66;;;18.85;100.00
34103;BME280;20381;54.498;18.206;2022-08-21T03:15:55;99218.33;;;18.84;100.00
34103;BME280;20381;54.498;18.206;2022-08-21T03:18:22;99214.86;;;18.74;100.00
34103;BME280;20381;54.498;18.206;2022-08-21T03:20:49;99224.66;;;18.87;100.00
34103;BME280;20381;54.498;18.206;2022-08-21T03:23:16;99222.64;;;18.75;100.00
34103;BME280;20381;54.498;18.206;2022-08-21T03:25:45;99226.08;;;18.91;100.00
34103;BME280;20381;54.498;18.206;2022-08-21T03:28:16;99226.41;;;18.92;100.00
34103;BME280;20381;54.498;18.206;2022-08-21T03:30:46;99226.54;;;18.81;100.00
34103;BME280;20381;54.498;18.206;2022-08-21T03:33:14;99229.80;;;18.79;100.00
34103;BME280;20381;54.498;18.206;2022-08-21T03:35:43;99228.23;;;18.82;100.00
34103;BME280;20381;54.498;18.206;2022-08-21T03:38:12;99229.28;;;18.85;100.00
34103;BME280;20381;54.498;18.206;2022-08-21T03:40:40;99230.17;;;18.90;100.00
34103;BME280;20381;54.498;18.206;2022-08-21T03:43:10;99228.35;;;18.90;100.00
34103;BME280;20381;54.498;18.206;2022-08-21T03:45:38;99221.41;;;18.89;100.00
34103;BME280;20381;54.498;18.206;2022-08-21T03:48:06;99229.34;;;18.89;100.00
34103;BME280;20381;54.498;18.206;2022-08-21T03:50:36;99225.70;;;18.90;100.00
34103;BME280;20381;54.498;18.206;2022-08-21T03:53:04;99231.98;;;18.89;100.00
34103;BME280;20381;54.498;18.206;2022-08-21T03:55:32;99231.37;;;18.91;100.00
34103;BME280;20381;54.498;18.206;2022-08-21T03:57:58;99231.83;;;18.81;100.00
34103;BME280;20381;54.498;18.206;2022-08-21T04:00:25;99235.89;;;18.85;100.00
34103;BME280;20381;54.498;18.206;2022-08-21T04:02:52;99243.24;;;18.82;100.00
34103;BME280;20381;54.498;18.206;2022-08-21T04:05:20;99237.83;;;18.83;100.00
34103;BME280;20381;54.498;18.206;2022-08-21T04:07:57;99248.41;;;18.83;100.00
34103;BME280;20381;54.498;18.206;2022-08-21T04:10:27;99250.01;;;18.90;100.00
34103;BME280;20381;54.498;18.206;2022-08-21T04:12:54;99249.67;;;18.98;100.00
34103;BME280;20381;54.498;18.206;2022-08-21T04:15:23;99251.36;;;18.99;100.00
34103;BME280;20381;54.498;18.206;2022-08-21T04:17:50;99253.85;;;18.91;100.00
34103;BME280;20381;54.498;18.206;2022-08-21T04:20:17;99252.59;;;18.95;100.00
34103;BME280;20381;54.498;18.206;2022-08-21T04:22:44;99257.33;;;18.92;100.00
34103;BME280;20381;54.498;18.206;2022-08-21T04:25:12;99244.50;;;18.87;100.00
34103;BME280;20381;54.498;18.206;2022-08-21T04:27:40;99247.02;;;18.89;100.00
34103;BME280;20381;54.498;18.206;2022-08-21T04:30:08;99248.34;;;18.98;100.00
34103;BME280;20381;54.498;18.206;2022-08-21T04:32:37;99249.67;;;18.98;100.00
34103;BME280;20381;54.498;18.206;2022-08-21T04:35:11;99243.77;;;19.00;100.00
34103;BME280;20381;54.498;18.206;2022-08-21T04:37:36;99247.52;;;18.88;100.00
34103;BME280;20381;54.498;18.206;2022-08-21T04:40:04;99251.91;;;18.93;100.00
34103;BME280;20381;54.498;18.206;2022-08-21T04:42:32;99242.28;;;18.92;100.00
34103;BME280;20381;54.498;18.206;2022-08-21T04:44:59;99244.10;;;18.92;100.00
34103;BME280;20381;54.498;18.206;2022-08-21T04:47:26;99251.77;;;18.85;100.00
34103;BME280;20381;54.498;18.206;2022-08-21T04:49:53;99251.05;;;18.93;100.00
34103;BME280;20381;54.498;18.206;2022-08-21T04:52:21;99247.95;;;18.93;100.00
34103;BME280;20381;54.498;18.206;2022-08-21T04:54:50;99251.05;;;18.93;100.00
34103;BME280;20381;54.498;18.206;2022-08-21T04:57:18;99249.20;;;18.99;100.00
34103;BME280;20381;54.498;18.206;2022-08-21T04:59:48;99254.01;;;18.99;100.00
34103;BME280;20381;54.498;18.206;2022-08-21T05:02:16;99254.95;;;18.98;100.00
34103;BME280;20381;54.498;18.206;2022-08-21T05:04:51;99261.94;;;19.09;100.00
34103;BME280;20381;54.498;18.206;2022-08-21T05:07:23;99264.59;;;19.09;100.00
34103;BME280;20381;54.498;18.206;2022-08-21T05:09:52;99257.69;;;19.12;100.00
34103;BME280;20381;54.498;18.206;2022-08-21T05:12:20;99257.01;;;19.20;100.00
34103;BME280;20381;54.498;18.206;2022-08-21T05:14:47;99265.03;;;19.24;100.00
34103;BME280;20381;54.498;18.206;2022-08-21T05:17:14;99262.64;;;19.11;100.00
34103;BME280;20381;54.498;18.206;2022-08-21T05:19:41;99269.04;;;19.18;100.00
34103;BME280;20381;54.498;18.206;2022-08-21T05:22:08;99267.92;;;19.21;100.00
34103;BME280;20381;54.498;18.206;2022-08-21T05:24:35;99268.91;;;19.20;100.00
34103;BME280;20381;54.498;18.206;2022-08-21T05:27:01;99267.59;;;19.20;100.00
34103;BME280;20381;54.498;18.206;2022-08-21T05:29:29;99279.50;;;19.20;100.00
34103;BME280;20381;54.498;18.206;2022-08-21T05:31:57;99278.52;;;19.21;100.00
34103;BME280;20381;54.498;18.206;2022-08-21T05:34:24;99279.78;;;19.17;100.00
34103;BME280;20381;54.498;18.206;2022-08-21T05:36:50;99278.13;;;19.16;100.00
34103;BME280;20381;54.498;18.206;2022-08-21T05:39:17;99278.95;;;19.16;100.00
34103;BME280;20381;54.498;18.206;2022-08-21T05:41:44;99282.00;;;19.12;100.00
34103;BME280;20381;54.498;18.206;2022-08-21T05:44:11;99290.49;;;19.06;100.00
34103;BME280;20381;54.498;18.206;2022-08-21T05:46:38;99287.08;;;18.99;100.00
34103;BME280;20381;54.498;18.206;2022-08-21T05:49:04;99286.98;;;18.95;100.00
34103;BME280;20381;54.498;18.206;2022-08-21T05:51:31;99287.41;;;19.00;100.00
34103;BME280;20381;54.498;18.206;2022-08-21T05:53:58;99277.39;;;18.94;100.00
34103;BME280;20381;54.498;18.206;2022-08-21T05:56:24;99284.22;;;18.97;100.00
34103;BME280;20381;54.498;18.206;2022-08-21T05:58:51;99287.20;;;18.98;100.00
34103;BME280;20381;54.498;18.206;2022-08-21T06:01:18;99297.90;;;18.87;100.00
34103;BME280;20381;54.498;18.206;2022-08-21T06:03:45;99301.35;;;19.03;100.00
34103;BME280;20381;54.498;18.206;2022-08-21T06:06:12;99304.52;;;18.87;100.00
34103;BME280;20381;54.498;18.206;2022-08-21T06:08:39;99297.88;;;19.02;100.00
34103;BME280;20381;54.498;18.206;2022-08-21T06:11:06;99303.17;;;19.12;100.00
34103;BME280;20381;54.498;18.206;2022-08-21T06:13:34;99297.02;;;19.01;100.00
34103;BME280;20381;54.498;18.206;2022-08-21T06:16:07;99292.02;;;19.18;100.00
34103;BME280;20381;54.498;18.206;2022-08-21T06:18:34;99291.22;;;19.27;100.00
34103;BME280;20381;54.498;18.206;2022-08-21T06:21:02;99292.87;;;19.28;100.00
34103;BME280;20381;54.498;18.206;2022-08-21T06:23:29;99295.87;;;19.29;100.00
34103;BME280;20381;54.498;18.206;2022-08-21T06:25:56;99290.11;;;19.30;100.00
34103;BME280;20381;54.498;18.206;2022-08-21T06:28:23;99285.28;;;19.29;100.00
34103;BME280;20381;54.498;18.206;2022-08-21T06:30:50;99279.98;;;19.29;100.00
34103;BME280;20381;54.498;18.206;2022-08-21T06:33:17;99279.70;;;19.32;100.00
34103;BME280;20381;54.498;18.206;2022-08-21T06:35:44;99281.03;;;19.32;100.00
34103;BME280;20381;54.498;18.206;2022-08-21T06:38:11;99279.03;;;19.30;100.00
34103;BME280;20381;54.498;18.206;2022-08-21T06:40:38;99274.63;;;19.25;100.00
34103;BME280;20381;54.498;18.206;2022-08-21T06:43:05;99278.27;;;19.24;100.00
34103;BME280;20381;54.498;18.206;2022-08-21T06:45:37;99280.20;;;19.22;100.00
34103;BME280;20381;54.498;18.206;2022-08-21T06:48:04;99277.28;;;19.25;100.00
34103;BME280;20381;54.498;18.206;2022-08-21T06:50:33;99280.48;;;19.29;100.00
34103;BME280;20381;54.498;18.206;2022-08-21T06:53:02;99277.42;;;19.33;100.00
34103;BME280;20381;54.498;18.206;2022-08-21T06:55:31;99276.73;;;19.21;100.00
34103;BME280;20381;54.498;18.206;2022-08-21T06:57:59;99278.17;;;19.20;100.00
34103;BME280;20381;54.498;18.206;2022-08-21T07:00:26;99282.23;;;19.24;100.00
34103;BME280;20381;54.498;18.206;2022-08-21T07:02:53;99278.27;;;19.24;100.00
34103;BME280;20381;54.498;18.206;2022-08-21T07:05:20;99280.89;;;19.05;100.00
34103;BME280;20381;54.498;18.206;2022-08-21T07:07:47;99283.69;;;19.22;100.00
34103;BME280;20381;54.498;18.206;2022-08-21T07:10:15;99288.62;;;19.31;100.00
34103;BME280;20381;54.498;18.206;2022-08-21T07:12:42;99295.05;;;19.38;100.00
34103;BME280;20381;54.498;18.206;2022-08-21T07:15:09;99288.21;;;19.45;100.00
34103;BME280;20381;54.498;18.206;2022-08-21T07:17:36;99295.81;;;19.64;100.00
34103;BME280;20381;54.498;18.206;2022-08-21T07:20:04;99287.50;;;19.82;100.00
34103;BME280;20381;54.498;18.206;2022-08-21T07:22:32;99298.27;;;20.14;100.00
34103;BME280;20381;54.498;18.206;2022-08-21T07:25:04;99297.05;;;20.22;100.00
34103;BME280;20381;54.498;18.206;2022-08-21T07:27:34;99298.02;;;20.21;100.00
34103;BME280;20381;54.498;18.206;2022-08-21T07:30:01;99298.02;;;20.21;100.00
34103;BME280;20381;54.498;18.206;2022-08-21T07:32:32;99297.44;;;20.04;100.00
34103;BME280;20381;54.498;18.206;2022-08-21T07:34:59;99307.09;;;19.85;100.00
34103;BME280;20381;54.498;18.206;2022-08-21T07:37:26;99308.52;;;19.70;100.00
34103;BME280;20381;54.498;18.206;2022-08-21T07:39:54;99316.75;;;19.67;100.00
34103;BME280;20381;54.498;18.206;2022-08-21T07:42:20;99308.44;;;19.66;100.00
34103;BME280;20381;54.498;18.206;2022-08-21T07:44:47;99312.66;;;19.63;100.00
34103;BME280;20381;54.498;18.206;2022-08-21T07:47:14;99312.94;;;19.60;100.00
34103;BME280;20381;54.498;18.206;2022-08-21T07:49:41;99314.14;;;19.61;100.00
34103;BME280;20381;54.498;18.206;2022-08-21T07:52:08;99316.36;;;19.56;100.00
34103;BME280;20381;54.498;18.206;2022-08-21T07:54:35;99318.09;;;19.52;100.00
34103;BME280;20381;54.498;18.206;2022-08-21T07:57:02;99316.16;;;19.54;100.00
34103;BME280;20381;54.498;18.206;2022-08-21T07:59:29;99314.49;;;19.53;100.00
34103;BME280;20381;54.498;18.206;2022-08-21T08:02:03;99308.98;;;19.50;100.00
34103;BME280;20381;54.498;18.206;2022-08-21T08:04:32;99300.83;;;19.48;100.00
34103;BME280;20381;54.498;18.206;2022-08-21T08:07:02;99303.41;;;19.34;100.00
34103;BME280;20381;54.498;18.206;2022-08-21T08:09:29;99297.28;;;19.33;100.00
34103;BME280;20381;54.498;18.206;2022-08-21T08:11:55;99309.25;;;19.57;100.00
34103;BME280;20381;54.498;18.206;2022-08-21T08:14:22;99315.81;;;19.53;100.00
34103;BME280;20381;54.498;18.206;2022-08-21T08:16:49;99320.06;;;19.50;100.00
34103;BME280;20381;54.498;18.206;2022-08-21T08:19:16;99315.37;;;19.28;100.00
34103;BME280;20381;54.498;18.206;2022-08-21T08:21:43;99329.05;;;19.33;100.00
34103;BME280;20381;54.498;18.206;2022-08-21T08:24:10;99323.66;;;19.29;100.00
34103;BME280;20381;54.498;18.206;2022-08-21T08:26:37;99319.92;;;19.41;100.00
34103;BME280;20381;54.498;18.206;2022-08-21T08:29:04;99322.78;;;19.44;100.00
34103;BME280;20381;54.498;18.206;2022-08-21T08:31:30;99322.57;;;19.41;100.00
34103;BME280;20381;54.498;18.206;2022-08-21T08:33:57;99324.94;;;19.44;100.00
34103;BME280;20381;54.498;18.206;2022-08-21T08:36:31;99316.01;;;19.45;100.00
34103;BME280;20381;54.498;18.206;2022-08-21T08:39:03;99318.47;;;19.53;100.00
34103;BME280;20381;54.498;18.206;2022-08-21T08:41:31;99310.17;;;19.42;100.00
34103;BME280;20381;54.498;18.206;2022-08-21T08:44:02;99311.91;;;19.47;100.00
34103;BME280;20381;54.498;18.206;2022-08-21T08:46:46;99307.11;;;19.47;100.00
34103;BME280;20381;54.498;18.206;2022-08-21T08:49:20;99305.79;;;19.47;100.00
34103;BME280;20381;54.498;18.206;2022-08-21T08:52:02;99305.79;;;19.47;100.00
34103;BME280;20381;54.498;18.206;2022-08-21T08:54:33;99301.09;;;19.25;100.00
34103;BME280;20381;54.498;18.206;2022-08-21T08:57:07;99303.41;;;19.24;100.00
34103;BME280;20381;54.498;18.206;2022-08-21T08:59:40;99304.04;;;19.41;100.00
34103;BME280;20381;54.498;18.206;2022-08-21T09:02:11;99305.77;;;19.37;100.00
34103;BME280;20381;54.498;18.206;2022-08-21T09:04:38;99303.05;;;19.42;100.00
34103;BME280;20381;54.498;18.206;2022-08-21T09:07:15;99309.53;;;19.54;100.00
34103;BME280;20381;54.498;18.206;2022-08-21T09:10:12;99312.27;;;19.58;100.00
34103;BME280;20381;54.498;18.206;2022-08-21T09:16:22;99308.80;;;19.67;100.00
34103;BME280;20381;54.498;18.206;2022-08-21T09:19:03;99307.33;;;19.78;100.00
34103;BME280;20381;54.498;18.206;2022-08-21T09:21:41;99304.05;;;19.80;100.00
34103;BME280;20381;54.498;18.206;2022-08-21T09:24:32;99307.37;;;19.82;100.00
34103;BME280;20381;54.498;18.206;2022-08-21T09:27:09;99310.47;;;19.78;100.00
34103;BME280;20381;54.498;18.206;2022-08-21T09:29:47;99308.78;;;19.86;100.00
34103;BME280;20381;54.498;18.206;2022-08-21T09:32:30;99315.58;;;19.99;100.00
34103;BME280;20381;54.498;18.206;2022-08-21T09:35:19;99320.13;;;19.93;100.00
34103;BME280;20381;54.498;18.206;2022-08-21T09:38:00;99316.64;;;19.82;100.00
34103;BME280;20381;54.498;18.206;2022-08-21T09:40:44;99326.20;;;19.79;100.00
34103;BME280;20381;54.498;18.206;2022-08-21T09:45:44;99323.69;;;19.87;100.00
34103;BME280;20381;54.498;18.206;2022-08-21T09:50:47;99316.83;;;20.04;100.00
34103;BME280;20381;54.498;18.206;2022-08-21T09:53:25;99316.28;;;20.01;100.00
34103;BME280;20381;54.498;18.206;2022-08-21T09:55:59;99314.70;;;19.94;100.00
34103;BME280;20381;54.498;18.206;2022-08-21T09:58:48;99316.16;;;19.93;100.00
34103;BME280;20381;54.498;18.206;2022-08-21T10:01:25;99314.20;;;19.95;100.00
34103;BME280;20381;54.498;18.206;2022-08-21T10:04:05;99330.52;;;19.90;100.00
34103;BME280;20381;54.498;18.206;2022-08-21T10:06:36;99332.91;;;19.83;100.00
34103;BME280;20381;54.498;18.206;2022-08-21T10:09:07;99331.91;;;19.65;100.00
34103;BME280;20381;54.498;18.206;2022-08-21T10:11:40;99345.49;;;19.56;100.00
34103;BME280;20381;54.498;18.206;2022-08-21T10:14:30;99345.13;;;19.45;100.00
34103;BME280;20381;54.498;18.206;2022-08-21T10:20:20;99346.03;;;19.40;100.00
34103;BME280;20381;54.498;18.206;2022-08-21T10:25:52;99352.09;;;19.27;100.00
34103;BME280;20381;54.498;18.206;2022-08-21T10:34:08;99346.98;;;18.85;100.00
34103;BME280;20381;54.498;18.206;2022-08-21T10:36:42;99358.24;;;18.87;100.00
34103;BME280;20381;54.498;18.206;2022-08-21T10:39:30;99356.14;;;18.81;100.00
34103;BME280;20381;54.498;18.206;2022-08-21T10:42:26;99359.50;;;18.83;100.00
34103;BME280;20381;54.498;18.206;2022-08-21T10:45:22;99348.58;;;18.82;100.00
34103;BME280;20381;54.498;18.206;2022-08-21T10:48:06;99350.73;;;18.83;100.00
34103;BME280;20381;54.498;18.206;2022-08-21T10:50:50;99352.33;;;19.05;100.00
34103;BME280;20381;54.498;18.206;2022-08-21T10:53:45;99352.83;;;19.14;100.00
34103;BME280;20381;54.498;18.206;2022-08-21T10:56:02;99344.13;;;19.08;100.00
34103;BME280;20381;54.498;18.206;2022-08-21T10:58:46;99346.81;;;18.77;100.00
34103;BME280;20381;54.498;18.206;2022-08-21T11:01:38;99339.88;;;18.55;99.27
34103;BME280;20381;54.498;18.206;2022-08-21T11:04:21;99349.70;;;18.43;100.00
34103;BME280;20381;54.498;18.206;2022-08-21T11:07:09;99347.64;;;18.26;99.29
34103;BME280;20381;54.498;18.206;2022-08-21T11:09:42;99341.11;;;18.15;100.00
34103;BME280;20381;54.498;18.206;2022-08-21T11:12:30;99347.33;;;18.19;100.00
34103;BME280;20381;54.498;18.206;2022-08-21T11:29:57;99392.08;;;18.47;100.00
34103;BME280;20381;54.498;18.206;2022-08-21T11:32:52;99392.11;;;18.26;99.69
34103;BME280;20381;54.498;18.206;2022-08-21T11:38:35;99394.70;;;18.11;99.80
34103;BME280;20381;54.498;18.206;2022-08-21T11:44:17;99398.63;;;18.17;100.00
34103;BME280;20381;54.498;18.206;2022-08-21T11:47:10;99391.42;;;18.19;100.00
34103;BME280;20381;54.498;18.206;2022-08-21T11:50:02;99378.94;;;18.36;100.00
34103;BME280;20381;54.498;18.206;2022-08-21T11:52:52;99378.39;;;18.63;100.00
34103;BME280;20381;54.498;18.206;2022-08-21T11:55:32;99381.00;;;18.84;100.00
34103;BME280;20381;54.498;18.206;2022-08-21T11:58:24;99384.52;;;18.79;97.31
34103;BME280;20381;54.498;18.206;2022-08-21T12:01:03;99381.64;;;18.82;99.24
34103;BME280;20381;54.498;18.206;2022-08-21T12:03:37;99384.84;;;18.86;99.67
34103;BME280;20381;54.498;18.206;2022-08-21T12:06:13;99374.66;;;18.96;99.21
34103;BME280;20381;54.498;18.206;2022-08-21T12:08:40;99383.64;;;18.99;99.31
34103;BME280;20381;54.498;18.206;2022-08-21T12:14:11;99381.27;;;18.96;99.25
34103;BME280;20381;54.498;18.206;2022-08-21T12:16:33;99387.52;;;18.95;99.83
34103;BME280;20381;54.498;18.206;2022-08-21T12:21:33;99382.52;;;18.77;99.98
34103;BME280;20381;54.498;18.206;2022-08-21T12:24:39;99388.66;;;18.72;100.00
34103;BME280;20381;54.498;18.206;2022-08-21T12:27:20;99385.00;;;18.63;100.00
34103;BME280;20381;54.498;18.206;2022-08-21T12:30:00;99399.97;;;18.53;100.00
34103;BME280;20381;54.498;18.206;2022-08-21T12:35:24;99412.95;;;18.35;100.00
34103;BME280;20381;54.498;18.206;2022-08-21T12:40:53;99411.12;;;18.15;99.74
34103;BME280;20381;54.498;18.206;2022-08-21T12:43:28;99417.23;;;17.94;99.03
34103;BME280;20381;54.498;18.206;2022-08-21T12:45:58;99421.85;;;17.70;98.51
34103;BME280;20381;54.498;18.206;2022-08-21T12:48:47;99411.55;;;17.66;100.00
34103;BME280;20381;54.498;18.206;2022-08-21T12:51:18;99426.88;;;17.73;100.00
34103;BME280;20381;54.498;18.206;2022-08-21T12:53:58;99424.95;;;17.86;100.00
34103;BME280;20381;54.498;18.206;2022-08-21T12:56:30;99426.25;;;17.92;100.00
34103;BME280;20381;54.498;18.206;2022-08-21T13:01:43;99435.47;;;17.97;100.00
34103;BME280;20381;54.498;18.206;2022-08-21T13:04:18;99429.30;;;17.76;100.00
34103;BME280;20381;54.498;18.206;2022-08-21T13:06:47;99423.86;;;17.88;100.00
34103;BME280;20381;54.498;18.206;2022-08-21T13:09:20;99433.61;;;17.77;99.74
34103;BME280;20381;54.498;18.206;2022-08-21T13:11:49;99425.46;;;17.80;99.51
34103;BME280;20381;54.498;18.206;2022-08-21T13:14:30;99428.98;;;17.52;100.00
34103;BME280;20381;54.498;18.206;2022-08-21T13:16:59;99430.23;;;17.37;99.03
34103;BME280;20381;54.498;18.206;2022-08-21T13:19:29;99428.73;;;17.55;99.54
34103;BME280;20381;54.498;18.206;2022-08-21T13:21:58;99424.88;;;17.71;99.10
34103;BME280;20381;54.498;18.206;2022-08-21T13:24:32;99429.77;;;17.70;99.12
34103;BME280;20381;54.498;18.206;2022-08-21T13:27:22;99436.75;;;17.71;99.59
34103;BME280;20381;54.498;18.206;2022-08-21T13:32:42;99436.02;;;17.80;99.88
34103;BME280;20381;54.498;18.206;2022-08-21T13:35:20;99435.52;;;17.86;100.00
34103;BME280;20381;54.498;18.206;2022-08-21T13:37:54;99434.06;;;17.93;100.00
34103;BME280;20381;54.498;18.206;2022-08-21T13:40:30;99438.83;;;17.99;100.00
34103;BME280;20381;54.498;18.206;2022-08-21T13:43:00;99432.31;;;18.03;100.00
34103;BME280;20381;54.498;18.206;2022-08-21T13:45:32;99437.52;;;17.99;100.00
34103;BME280;20381;54.498;18.206;2022-08-21T13:48:03;99432.37;;;17.92;99.75
34103;BME280;20381;54.498;18.206;2022-08-21T13:50:33;99446.08;;;17.86;100.00
34103;BME280;20381;54.498;18.206;2022-08-21T13:53:04;99449.32;;;17.84;100.00
34103;BME280;20381;54.498;18.206;2022-08-21T13:55:42;99454.52;;;17.80;100.00
34103;BME280;20381;54.498;18.206;2022-08-21T13:58:11;99462.41;;;17.85;100.00